Time;durP1;ratioP1;P1;durP2;ratioP2;P2;SDS_P1;SDS_P2;PMS_P1;PMS_P2;Temp;Humidity;BMP_temperature;BMP_pressure;BME280_temperature;BME280_humidity;BME280_pressure;Samples;Min_cycle;Max_cycle;Signal;HPM_P1;HPM_P2
2023/03/26 00:00:12;;;;;;;2.45;0.70;;;;;;;;;;4906609;29;20434;-76
2023/03/26 00:02:38;;;;;;;1.45;0.50;;;;;;;;;;4912881;29;20520;-76
2023/03/26 00:05:05;;;;;;;1.00;0.30;;;;;;;;;;4910879;29;20020;-77
2023/03/26 00:07:31;;;;;;;1.85;0.32;;;;;;;;;;4909284;29;20500;-78
2023/03/26 00:09:57;;;;;;;0.85;0.10;;;;;;;;;;4911729;29;20024;-77
2023/03/26 00:12:24;;;;;;;1.13;0.28;;;;;;;;;;4913383;29;20102;-77
2023/03/26 00:14:51;;;;;;;1.65;0.30;;;;;;;;;;4912965;29;20024;-78
2023/03/26 00:17:17;;;;;;;0.38;0.10;;;;;;;;;;4910253;29;20016;-77
2023/03/26 00:19:44;;;;;;;0.45;0.20;;;;;;;;;;4911310;29;20561;-77
2023/03/26 00:22:12;;;;;;;0.63;0.20;;;;;;;;;;4914355;29;20080;-76
2023/03/26 00:24:38;;;;;;;0.30;0.10;;;;;;;;;;4914893;29;20052;-80
2023/03/26 00:27:07;;;;;;;0.10;0.10;;;;;;;;;;4912086;29;20024;-77
2023/03/26 00:29:34;;;;;;;0.90;0.20;;;;;;;;;;4911461;29;20092;-77
2023/03/26 00:32:00;;;;;;;0.45;0.30;;;;;;;;;;4915546;29;20024;-80
2023/03/26 00:34:26;;;;;;;0.40;0.30;;;;;;;;;;4901117;29;20033;-78
2023/03/26 00:36:53;;;;;;;0.30;0.10;;;;;;;;;;4900876;29;20031;-77
2023/03/26 00:39:20;;;;;;;1.48;0.20;;;;;;;;;;4901492;29;20033;-78
2023/03/26 00:41:46;;;;;;;0.70;0.20;;;;;;;;;;4902270;29;20027;-79
2023/03/26 00:44:12;;;;;;;0.85;0.20;;;;;;;;;;4902328;29;20071;-77
2023/03/26 00:46:39;;;;;;;2.50;0.30;;;;;;;;;;4910092;29;20025;-78
2023/03/26 00:49:09;;;;;;;0.75;0.22;;;;;;;;;;4907085;29;20088;-78
2023/03/26 00:51:36;;;;;;;2.03;0.30;;;;;;;;;;4902087;29;20021;-78
2023/03/26 00:54:02;;;;;;;3.70;0.40;;;;;;;;;;4902252;29;20028;-76
2023/03/26 00:56:28;;;;;;;2.35;0.50;;;;;;;;;;4902072;29;20047;-78
2023/03/26 00:58:54;;;;;;;2.92;0.43;;;;;;;;;;4901038;29;20056;-77
2023/03/26 01:01:26;;;;;;;2.65;0.50;;;;;;;;;;4902262;29;20028;-76
2023/03/26 01:03:57;;;;;;;2.85;0.45;;;;;;;;;;4900872;29;20548;-76
2023/03/26 01:06:36;;;;;;;1.58;0.30;;;;;;;;;;4900906;29;20035;-77
2023/03/26 01:09:04;;;;;;;2.08;0.40;;;;;;;;;;4901014;29;20071;-76
2023/03/26 01:11:32;;;;;;;4.30;0.40;;;;;;;;;;4902179;29;20035;-76
2023/03/26 01:14:30;;;;;;;1.67;0.50;;;;;;;;;;4900909;29;20533;-76
2023/03/26 01:17:05;;;;;;;5.63;0.73;;;;;;;;;;4870091;29;20040;-76
2023/03/26 01:19:43;;;;;;;3.58;0.60;;;;;;;;;;4901175;29;20061;-76
2023/03/26 01:22:10;;;;;;;6.30;0.82;;;;;;;;;;4900929;29;20127;-76
2023/03/26 01:24:37;;;;;;;7.13;0.60;;;;;;;;;;4900992;29;20029;-77
2023/03/26 01:27:16;;;;;;;3.88;0.80;;;;;;;;;;4903236;29;20025;-76
2023/03/26 01:29:51;;;;;;;4.03;0.60;;;;;;;;;;4904541;29;20394;-76
2023/03/26 01:32:21;;;;;;;5.90;0.70;;;;;;;;;;4903758;29;20025;-77
2023/03/26 01:34:52;;;;;;;7.90;1.00;;;;;;;;;;4905440;29;20024;-78
2023/03/26 01:37:42;;;;;;;4.70;0.80;;;;;;;;;;4905920;29;20051;-79
2023/03/26 01:40:12;;;;;;;5.25;1.00;;;;;;;;;;4898051;29;20044;-81
2023/03/26 01:42:43;;;;;;;6.20;1.05;;;;;;;;;;4904383;29;20566;-79
2023/03/26 01:45:11;;;;;;;3.85;0.75;;;;;;;;;;4905559;29;20413;-76
2023/03/26 01:47:39;;;;;;;5.20;0.85;;;;;;;;;;4919700;29;20386;-76
2023/03/26 01:50:05;;;;;;;6.05;0.77;;;;;;;;;;4904259;29;20084;-75
2023/03/26 01:52:31;;;;;;;6.03;0.80;;;;;;;;;;4904148;29;20052;-76
2023/03/26 01:54:58;;;;;;;4.55;1.00;;;;;;;;;;4905108;29;20434;-76
2023/03/26 01:57:36;;;;;;;4.57;0.88;;;;;;;;;;4903572;29;20036;-76
2023/03/26 02:00:05;;;;;;;4.55;0.98;;;;;;;;;;4905268;29;20052;-81
2023/03/26 02:02:50;;;;;;;5.10;0.98;;;;;;;;;;4904146;29;20147;-77
2023/03/26 02:05:39;;;;;;;8.85;1.02;;;;;;;;;;4903449;29;20028;-78
2023/03/26 02:08:10;;;;;;;4.88;1.00;;;;;;;;;;4913191;29;20036;-78
2023/03/26 02:10:40;;;;;;;7.00;1.10;;;;;;;;;;4922446;29;20030;-79
2023/03/26 02:13:06;;;;;;;6.07;0.95;;;;;;;;;;4924247;29;20393;-77
2023/03/26 02:15:33;;;;;;;6.47;1.00;;;;;;;;;;4923577;29;20032;-77
2023/03/26 02:18:00;;;;;;;8.82;1.15;;;;;;;;;;4924050;29;20033;-76
2023/03/26 02:20:29;;;;;;;6.38;0.90;;;;;;;;;;4923963;29;20494;-76
2023/03/26 02:22:56;;;;;;;7.00;1.00;;;;;;;;;;4922801;29;20032;-76
2023/03/26 02:25:22;;;;;;;6.18;0.98;;;;;;;;;;4923654;29;20028;-75
2023/03/26 02:27:49;;;;;;;5.50;0.90;;;;;;;;;;4923732;29;20088;-78
2023/03/26 02:30:17;;;;;;;8.45;1.00;;;;;;;;;;4922263;29;20039;-77
2023/03/26 02:32:43;;;;;;;6.70;1.10;;;;;;;;;;4922431;29;20092;-78
2023/03/26 02:35:09;;;;;;;6.50;1.00;;;;;;;;;;4923039;29;20032;-77
2023/03/26 02:37:36;;;;;;;8.00;1.08;;;;;;;;;;4922710;29;20020;-78
2023/03/26 02:40:04;;;;;;;5.40;1.05;;;;;;;;;;4922525;29;20024;-79
2023/03/26 02:42:30;;;;;;;6.82;1.20;;;;;;;;;;4923977;29;20133;-78
2023/03/26 02:44:56;;;;;;;4.70;1.00;;;;;;;;;;4923122;29;20485;-79
2023/03/26 02:47:22;;;;;;;7.93;1.10;;;;;;;;;;4922160;29;20052;-78
2023/03/26 02:49:48;;;;;;;11.27;1.02;;;;;;;;;;4904641;29;20036;-77
2023/03/26 02:52:17;;;;;;;8.52;1.10;;;;;;;;;;4904547;29;20537;-78
2023/03/26 02:54:43;;;;;;;11.05;1.05;;;;;;;;;;4902986;29;20037;-78
2023/03/26 02:57:09;;;;;;;5.45;0.93;;;;;;;;;;4902815;29;20071;-78
2023/03/26 02:59:35;;;;;;;6.93;1.00;;;;;;;;;;4904048;29;20387;-77
2023/03/26 03:02:01;;;;;;;9.38;1.10;;;;;;;;;;4902794;29;20413;-77
2023/03/26 03:04:27;;;;;;;6.00;1.05;;;;;;;;;;4903726;29;20025;-77
2023/03/26 03:06:56;;;;;;;11.57;1.40;;;;;;;;;;4902925;29;20032;-79
2023/03/26 03:09:22;;;;;;;4.47;0.90;;;;;;;;;;4902332;29;20039;-79
2023/03/26 03:11:48;;;;;;;7.47;0.98;;;;;;;;;;4904245;29;20048;-79
2023/03/26 03:14:14;;;;;;;5.85;1.00;;;;;;;;;;4903989;29;20132;-78
2023/03/26 03:16:40;;;;;;;11.80;1.13;;;;;;;;;;4902604;29;20033;-78
2023/03/26 03:19:06;;;;;;;7.63;1.20;;;;;;;;;;4901698;29;20402;-78
2023/03/26 03:21:32;;;;;;;8.73;1.20;;;;;;;;;;4903363;29;20068;-78
2023/03/26 03:23:58;;;;;;;6.65;1.10;;;;;;;;;;4901406;29;20112;-79
2023/03/26 03:26:26;;;;;;;7.00;1.02;;;;;;;;;;4901487;29;20028;-78
2023/03/26 03:28:53;;;;;;;5.68;1.00;;;;;;;;;;4902952;29;20168;-78
2023/03/26 03:31:20;;;;;;;6.93;1.10;;;;;;;;;;4903977;29;20029;-78
2023/03/26 03:33:46;;;;;;;4.97;0.77;;;;;;;;;;4902662;29;20538;-77
2023/03/26 03:36:20;;;;;;;5.68;1.00;;;;;;;;;;4903294;29;20033;-78
2023/03/26 03:38:47;;;;;;;6.82;1.10;;;;;;;;;;4909628;29;20054;-78
2023/03/26 03:41:13;;;;;;;5.25;1.08;;;;;;;;;;4922380;29;20028;-78
2023/03/26 03:43:40;;;;;;;8.20;1.13;;;;;;;;;;4922467;29;20123;-78
2023/03/26 03:46:06;;;;;;;6.72;0.90;;;;;;;;;;4920859;29;20103;-77
2023/03/26 03:48:32;;;;;;;6.47;1.15;;;;;;;;;;4913856;29;20509;-77
2023/03/26 03:50:58;;;;;;;6.63;0.93;;;;;;;;;;4902858;29;20485;-79
2023/03/26 03:53:25;;;;;;;6.18;1.00;;;;;;;;;;4903596;29;20096;-78
2023/03/26 03:55:53;;;;;;;10.60;1.17;;;;;;;;;;4901720;29;20048;-78
2023/03/26 03:58:20;;;;;;;8.10;0.98;;;;;;;;;;4903302;29;20104;-78
2023/03/26 04:00:47;;;;;;;7.15;1.13;;;;;;;;;;4902115;29;20502;-78
2023/03/26 04:03:13;;;;;;;8.82;1.10;;;;;;;;;;4902351;29;20028;-78
2023/03/26 04:05:39;;;;;;;9.60;1.30;;;;;;;;;;4902792;29;20024;-78
2023/03/26 04:08:06;;;;;;;6.53;1.15;;;;;;;;;;4903324;29;20038;-78
2023/03/26 04:10:32;;;;;;;5.65;1.10;;;;;;;;;;4902822;29;20028;-78
2023/03/26 04:12:58;;;;;;;7.10;1.27;;;;;;;;;;4903145;29;20028;-77
2023/03/26 04:15:24;;;;;;;6.07;1.05;;;;;;;;;;4901622;29;20024;-76
2023/03/26 04:17:50;;;;;;;7.35;0.80;;;;;;;;;;4918606;29;20039;-76
2023/03/26 04:20:18;;;;;;;4.57;0.80;;;;;;;;;;4919852;29;20031;-75
2023/03/26 04:22:44;;;;;;;4.13;0.70;;;;;;;;;;4920367;29;20024;-78
2023/03/26 04:25:11;;;;;;;3.92;0.80;;;;;;;;;;4921474;29;20084;-76
2023/03/26 04:27:37;;;;;;;3.03;0.80;;;;;;;;;;4921856;29;20104;-75
2023/03/26 04:30:05;;;;;;;3.15;0.70;;;;;;;;;;4920398;29;20071;-77
2023/03/26 04:32:34;;;;;;;3.83;0.63;;;;;;;;;;4921920;29;20038;-77
2023/03/26 04:35:02;;;;;;;4.68;0.90;;;;;;;;;;4920126;29;20083;-76
2023/03/26 04:37:33;;;;;;;4.22;0.80;;;;;;;;;;4921448;29;20024;-76
2023/03/26 04:40:01;;;;;;;5.35;0.60;;;;;;;;;;4920104;29;20485;-76
2023/03/26 04:42:27;;;;;;;4.22;0.75;;;;;;;;;;4921467;29;20024;-77
2023/03/26 04:44:53;;;;;;;2.65;0.40;;;;;;;;;;4921172;29;20063;-77
2023/03/26 04:47:19;;;;;;;2.53;0.57;;;;;;;;;;4920855;29;20052;-78
2023/03/26 04:49:46;;;;;;;3.55;0.60;;;;;;;;;;4901527;29;20036;-77
2023/03/26 04:52:12;;;;;;;3.47;0.60;;;;;;;;;;4901003;29;20039;-76
2023/03/26 04:54:39;;;;;;;4.25;0.55;;;;;;;;;;4902254;29;20951;-75
2023/03/26 04:57:12;;;;;;;2.50;0.60;;;;;;;;;;4901962;29;20514;-76
2023/03/26 04:59:40;;;;;;;2.90;0.60;;;;;;;;;;4901123;29;20056;-76
2023/03/26 05:02:08;;;;;;;4.05;0.70;;;;;;;;;;4901877;29;20052;-76
2023/03/26 05:04:35;;;;;;;5.68;0.70;;;;;;;;;;4906978;29;20028;-77
2023/03/26 05:07:01;;;;;;;5.13;0.90;;;;;;;;;;4919767;29;20030;-78
2023/03/26 05:09:28;;;;;;;3.33;0.55;;;;;;;;;;4920851;29;20039;-78
2023/03/26 05:11:54;;;;;;;3.17;0.50;;;;;;;;;;4921240;29;20115;-78
2023/03/26 05:14:20;;;;;;;7.55;0.98;;;;;;;;;;4920897;29;20099;-78
2023/03/26 05:16:47;;;;;;;3.20;0.50;;;;;;;;;;4920615;29;20108;-78
2023/03/26 05:19:13;;;;;;;3.38;0.60;;;;;;;;;;4920833;29;20103;-78
2023/03/26 05:21:40;;;;;;;5.57;0.63;;;;;;;;;;4921270;29;20020;-78
2023/03/26 05:24:06;;;;;;;4.30;0.50;;;;;;;;;;4920027;29;20024;-78
2023/03/26 05:26:33;;;;;;;3.67;0.70;;;;;;;;;;4920778;29;20035;-78
2023/03/26 05:29:01;;;;;;;2.63;0.50;;;;;;;;;;4920935;29;20032;-77
2023/03/26 05:31:29;;;;;;;6.10;0.80;;;;;;;;;;4920755;29;20024;-77
2023/03/26 05:33:55;;;;;;;2.30;0.32;;;;;;;;;;4919743;29;20036;-75
2023/03/26 05:36:22;;;;;;;4.38;0.85;;;;;;;;;;4920666;29;20035;-77
2023/03/26 05:38:48;;;;;;;2.25;0.40;;;;;;;;;;4920761;29;20165;-76
2023/03/26 05:41:15;;;;;;;3.88;0.60;;;;;;;;;;4920300;29;20101;-76
2023/03/26 05:43:42;;;;;;;3.97;0.50;;;;;;;;;;4920988;29;20103;-76
2023/03/26 05:46:08;;;;;;;2.63;0.43;;;;;;;;;;4920645;29;20519;-75
2023/03/26 05:48:34;;;;;;;2.88;0.40;;;;;;;;;;4911712;29;20092;-75
2023/03/26 05:51:00;;;;;;;3.03;0.60;;;;;;;;;;4901744;29;20080;-76
2023/03/26 05:53:26;;;;;;;3.55;0.60;;;;;;;;;;4901826;29;20092;-76
2023/03/26 05:55:59;;;;;;;1.70;0.40;;;;;;;;;;4901436;29;20029;-75
2023/03/26 05:58:25;;;;;;;3.38;0.60;;;;;;;;;;4900550;29;20032;-77
2023/03/26 06:00:58;;;;;;;5.43;0.50;;;;;;;;;;4901792;29;20029;-75
2023/03/26 06:03:24;;;;;;;5.03;0.50;;;;;;;;;;4901876;29;20021;-76
2023/03/26 06:05:50;;;;;;;3.80;0.40;;;;;;;;;;4901702;29;20029;-76
2023/03/26 06:08:18;;;;;;;2.20;0.50;;;;;;;;;;4901756;29;20101;-76
2023/03/26 06:10:44;;;;;;;6.72;0.90;;;;;;;;;;4901511;29;20161;-75
2023/03/26 06:13:12;;;;;;;4.60;0.47;;;;;;;;;;4901700;29;20025;-76
2023/03/26 06:15:38;;;;;;;5.22;0.50;;;;;;;;;;4905103;29;20039;-75
2023/03/26 06:18:04;;;;;;;3.38;0.60;;;;;;;;;;4905098;29;20029;-77
2023/03/26 06:20:30;;;;;;;4.28;0.60;;;;;;;;;;4904120;29;20058;-77
2023/03/26 06:22:56;;;;;;;3.33;0.75;;;;;;;;;;4905243;29;20099;-76
2023/03/26 06:25:22;;;;;;;4.10;0.80;;;;;;;;;;4904790;29;20064;-76
2023/03/26 06:27:48;;;;;;;1.00;0.30;;;;;;;;;;4904765;29;20076;-76
2023/03/26 06:30:14;;;;;;;2.25;0.43;;;;;;;;;;4903503;29;20117;-75
2023/03/26 06:32:40;;;;;;;2.22;0.52;;;;;;;;;;4904661;29;20108;-75
2023/03/26 06:35:06;;;;;;;1.98;0.40;;;;;;;;;;4904443;29;20195;-75
2023/03/26 06:37:33;;;;;;;3.30;0.50;;;;;;;;;;4904895;29;20116;-75
2023/03/26 06:39:59;;;;;;;3.05;0.65;;;;;;;;;;4909254;29;20024;-76
2023/03/26 06:42:25;;;;;;;2.55;0.40;;;;;;;;;;4923674;29;20469;-75
2023/03/26 06:44:51;;;;;;;6.43;0.63;;;;;;;;;;4923644;29;20028;-76
2023/03/26 06:47:17;;;;;;;1.48;0.47;;;;;;;;;;4922219;29;20063;-76
2023/03/26 06:49:43;;;;;;;5.32;0.60;;;;;;;;;;4904565;29;20390;-75
2023/03/26 06:52:09;;;;;;;5.10;0.50;;;;;;;;;;4921200;29;21152;-76
2023/03/26 06:54:35;;;;;;;3.50;0.60;;;;;;;;;;4923006;29;20397;-76
2023/03/26 06:57:01;;;;;;;6.95;0.70;;;;;;;;;;4923108;29;20039;-75
2023/03/26 06:59:27;;;;;;;3.40;0.45;;;;;;;;;;4923026;29;20031;-76
2023/03/26 07:01:53;;;;;;;3.85;0.80;;;;;;;;;;4923045;29;20024;-75
2023/03/26 07:04:19;;;;;;;4.53;0.50;;;;;;;;;;4922867;29;20020;-74
2023/03/26 07:06:45;;;;;;;3.05;0.52;;;;;;;;;;4922140;29;20036;-76
2023/03/26 07:09:11;;;;;;;5.63;0.60;;;;;;;;;;4922671;29;20111;-76
2023/03/26 07:11:37;;;;;;;4.95;0.52;;;;;;;;;;4921972;29;20032;-75
2023/03/26 07:14:03;;;;;;;4.32;0.70;;;;;;;;;;4923078;29;20031;-75
2023/03/26 07:16:29;;;;;;;5.43;0.70;;;;;;;;;;4917023;29;20035;-76
2023/03/26 07:18:55;;;;;;;4.55;0.82;;;;;;;;;;4920658;29;20031;-77
2023/03/26 07:21:21;;;;;;;4.53;0.80;;;;;;;;;;4922794;29;20032;-76
2023/03/26 07:23:48;;;;;;;3.03;0.60;;;;;;;;;;4922765;29;20055;-79
2023/03/26 07:26:17;;;;;;;5.07;0.82;;;;;;;;;;4922167;29;20042;-78
2023/03/26 07:28:47;;;;;;;4.45;0.80;;;;;;;;;;4922582;29;20024;-80
2023/03/26 07:31:33;;;;;;;7.40;1.02;;;;;;;;;;4921374;29;20036;-80
2023/03/26 07:34:00;;;;;;;5.18;1.20;;;;;;;;;;4922494;29;20024;-82
2023/03/26 07:36:32;;;;;;;4.20;0.70;;;;;;;;;;4922425;29;20028;-81
2023/03/26 07:39:07;;;;;;;6.97;0.85;;;;;;;;;;4921178;29;20508;-79
2023/03/26 07:41:44;;;;;;;3.25;0.70;;;;;;;;;;4919512;29;20482;-78
2023/03/26 07:44:11;;;;;;;5.05;0.80;;;;;;;;;;4922453;29;20413;-78
2023/03/26 07:46:38;;;;;;;5.53;0.82;;;;;;;;;;4913133;29;20162;-78
2023/03/26 07:49:04;;;;;;;8.23;0.93;;;;;;;;;;4908605;29;20080;-77
2023/03/26 07:51:31;;;;;;;4.15;0.73;;;;;;;;;;4902081;29;20040;-78
2023/03/26 07:54:02;;;;;;;5.90;1.08;;;;;;;;;;4903885;29;20032;-79
2023/03/26 07:56:40;;;;;;;6.60;0.82;;;;;;;;;;4911175;29;20047;-74
2023/03/26 07:59:10;;;;;;;6.20;0.90;;;;;;;;;;4916240;29;20036;-74
2023/03/26 08:01:52;;;;;;;7.60;1.00;;;;;;;;;;4920922;29;20044;-77
2023/03/26 08:04:26;;;;;;;5.68;0.90;;;;;;;;;;4920113;29;20050;-75
2023/03/26 08:06:57;;;;;;;6.22;0.85;;;;;;;;;;4918203;29;20489;-74
2023/03/26 08:09:50;;;;;;;5.68;0.93;;;;;;;;;;4916769;29;20036;-79
2023/03/26 08:12:20;;;;;;;5.25;0.63;;;;;;;;;;4918587;29;20533;-78
2023/03/26 08:14:46;;;;;;;5.65;1.08;;;;;;;;;;4911928;29;20404;-79
2023/03/26 08:17:15;;;;;;;7.40;1.30;;;;;;;;;;4902864;29;20108;-71
2023/03/26 08:20:01;;;;;;;5.85;0.82;;;;;;;;;;4903660;29;20032;-80
2023/03/26 08:22:27;;;;;;;7.13;0.88;;;;;;;;;;4914886;29;20030;-76
2023/03/26 08:25:12;;;;;;;6.03;0.90;;;;;;;;;;4912686;29;20024;-73
2023/03/26 08:27:39;;;;;;;6.07;0.80;;;;;;;;;;4914744;29;20059;-73
2023/03/26 08:30:10;;;;;;;2.83;0.52;;;;;;;;;;4911863;29;20039;-75
2023/03/26 08:32:36;;;;;;;1.95;0.50;;;;;;;;;;4909461;29;20087;-77
2023/03/26 08:35:03;;;;;;;4.35;0.60;;;;;;;;;;4911771;29;20090;-77
2023/03/26 08:37:29;;;;;;;3.80;0.55;;;;;;;;;;4913728;29;20026;-75
2023/03/26 08:39:55;;;;;;;3.00;0.60;;;;;;;;;;4912124;29;20027;-73
2023/03/26 08:42:34;;;;;;;3.45;0.70;;;;;;;;;;4912239;29;20025;-75
2023/03/26 08:45:00;;;;;;;3.45;0.70;;;;;;;;;;4909037;29;20027;-70
2023/03/26 08:47:46;;;;;;;2.65;0.52;;;;;;;;;;4915001;29;20422;-76
2023/03/26 08:50:18;;;;;;;3.08;0.50;;;;;;;;;;4904550;29;20044;-76
2023/03/26 08:52:56;;;;;;;1.38;0.43;;;;;;;;;;4914801;29;20046;-73
2023/03/26 08:55:41;;;;;;;2.25;0.50;;;;;;;;;;4913285;29;20553;-73
2023/03/26 08:58:26;;;;;;;1.95;0.40;;;;;;;;;;4915172;29;20485;-72
2023/03/26 09:01:04;;;;;;;2.78;0.70;;;;;;;;;;4908229;29;20068;-74
2023/03/26 09:03:30;;;;;;;1.60;0.55;;;;;;;;;;4914310;29;20073;-72
2023/03/26 09:06:15;;;;;;;2.25;0.50;;;;;;;;;;4911907;29;20024;-71
2023/03/26 09:08:44;;;;;;;2.35;0.38;;;;;;;;;;4910891;29;20035;-72
2023/03/26 09:11:18;;;;;;;1.98;0.40;;;;;;;;;;4914614;29;20028;-73
2023/03/26 09:13:44;;;;;;;0.93;0.28;;;;;;;;;;4919603;29;20401;-73
2023/03/26 09:16:22;;;;;;;1.08;0.40;;;;;;;;;;4913608;29;20105;-76
2023/03/26 09:18:48;;;;;;;1.20;0.22;;;;;;;;;;4906628;29;20406;-72
2023/03/26 09:21:31;;;;;;;0.30;0.30;;;;;;;;;;4911669;29;20088;-73
2023/03/26 09:24:00;;;;;;;0.98;0.20;;;;;;;;;;4911320;29;20028;-72
2023/03/26 09:26:26;;;;;;;1.33;0.25;;;;;;;;;;4910273;29;20406;-73
2023/03/26 09:28:55;;;;;;;1.15;0.30;;;;;;;;;;4911594;29;20025;-73
2023/03/26 09:31:21;;;;;;;2.67;0.50;;;;;;;;;;4910824;29;20036;-71
2023/03/26 09:33:58;;;;;;;1.50;0.40;;;;;;;;;;4909599;29;20628;-74
2023/03/26 09:36:31;;;;;;;1.27;0.50;;;;;;;;;;4910969;29;20393;-74
2023/03/26 09:38:57;;;;;;;0.55;0.40;;;;;;;;;;4911205;29;20020;-72
2023/03/26 09:41:32;;;;;;;1.60;0.40;;;;;;;;;;4910631;29;20172;-76
2023/03/26 09:44:13;;;;;;;0.63;0.32;;;;;;;;;;4910754;29;20024;-77
2023/03/26 09:46:58;;;;;;;1.27;0.38;;;;;;;;;;4910060;29;20056;-76
2023/03/26 09:49:24;;;;;;;2.58;0.40;;;;;;;;;;4908564;29;20148;-74
2023/03/26 09:51:54;;;;;;;0.80;0.22;;;;;;;;;;4905512;29;20062;-74
2023/03/26 09:54:43;;;;;;;1.60;0.60;;;;;;;;;;4905387;29;20065;-74
2023/03/26 09:57:18;;;;;;;1.77;0.70;;;;;;;;;;4905373;29;20474;-72
2023/03/26 09:59:44;;;;;;;1.50;0.52;;;;;;;;;;4911838;29;20065;-72
2023/03/26 10:02:25;;;;;;;1.52;0.65;;;;;;;;;;4921974;29;20053;-73
2023/03/26 10:05:10;;;;;;;1.55;0.60;;;;;;;;;;4912311;29;20024;-73
2023/03/26 10:07:52;;;;;;;1.92;0.60;;;;;;;;;;4920771;29;20032;-74
2023/03/26 10:10:54;;;;;;;3.58;0.90;;;;;;;;;;4915987;29;20077;-74
2023/03/26 10:13:42;;;;;;;2.35;0.82;;;;;;;;;;4836770;29;20527;-73
2023/03/26 10:16:19;;;;;;;4.40;1.83;;;;;;;;;;4908452;29;20040;-78
2023/03/26 10:18:45;;;;;;;2.50;0.80;;;;;;;;;;4908755;29;20065;-78
2023/03/26 10:21:40;;;;;;;2.90;1.00;;;;;;;;;;4907884;29;20036;-73
2023/03/26 10:24:24;;;;;;;1.60;0.70;;;;;;;;;;4914070;29;20516;-67
2023/03/26 10:27:09;;;;;;;1.20;0.60;;;;;;;;;;4919511;29;20036;-73
2023/03/26 10:29:38;;;;;;;0.70;0.50;;;;;;;;;;4924145;29;20039;-73
2023/03/26 10:32:22;;;;;;;1.40;0.52;;;;;;;;;;4922658;29;20028;-73
2023/03/26 10:34:49;;;;;;;0.60;0.40;;;;;;;;;;4923158;29;20039;-74
2023/03/26 10:37:34;;;;;;;2.67;0.40;;;;;;;;;;4923581;29;20059;-74
2023/03/26 10:40:00;;;;;;;1.55;0.40;;;;;;;;;;4921937;29;20028;-74
2023/03/26 10:42:33;;;;;;;0.95;0.43;;;;;;;;;;4922240;29;20062;-75
2023/03/26 10:45:12;;;;;;;1.15;0.40;;;;;;;;;;4921844;29;20445;-75
2023/03/26 10:47:41;;;;;;;0.88;0.50;;;;;;;;;;4921459;29;20131;-73
2023/03/26 10:50:17;;;;;;;1.65;0.47;;;;;;;;;;4902830;29;20036;-76
2023/03/26 10:52:43;;;;;;;1.10;0.40;;;;;;;;;;4916485;29;20035;-72
2023/03/26 10:55:15;;;;;;;1.88;0.60;;;;;;;;;;4915847;29;20490;-75
2023/03/26 10:57:48;;;;;;;1.50;0.47;;;;;;;;;;4911902;29;20489;-78
2023/03/26 11:00:16;;;;;;;1.13;0.40;;;;;;;;;;4916131;29;20020;-80
2023/03/26 11:02:58;;;;;;;0.70;0.30;;;;;;;;;;4913508;29;20065;-74
2023/03/26 11:05:32;;;;;;;1.58;0.47;;;;;;;;;;4913510;29;20032;-74
2023/03/26 11:07:58;;;;;;;2.47;0.52;;;;;;;;;;4917837;29;20486;-74
2023/03/26 11:10:30;;;;;;;1.77;0.57;;;;;;;;;;4914439;29;20025;-73
2023/03/26 11:13:15;;;;;;;1.10;0.50;;;;;;;;;;4912212;29;20024;-75
2023/03/26 11:15:59;;;;;;;1.85;0.50;;;;;;;;;;4912451;29;20517;-72
2023/03/26 11:18:28;;;;;;;2.40;0.60;;;;;;;;;;4914389;29;20017;-73
2023/03/26 11:21:03;;;;;;;1.40;0.50;;;;;;;;;;4911841;29;21243;-73
2023/03/26 11:23:59;;;;;;;0.98;0.40;;;;;;;;;;4913150;29;20115;-71
2023/03/26 11:26:40;;;;;;;2.50;0.60;;;;;;;;;;4898841;29;20127;-71
2023/03/26 11:29:14;;;;;;;1.85;0.50;;;;;;;;;;4918437;29;20537;-71
2023/03/26 11:31:43;;;;;;;2.40;0.60;;;;;;;;;;4913641;29;20061;-76
2023/03/26 11:34:20;;;;;;;2.92;0.68;;;;;;;;;;4912835;29;20585;-74
2023/03/26 11:36:51;;;;;;;3.97;0.65;;;;;;;;;;4912203;29;20028;-72
2023/03/26 11:39:22;;;;;;;19.42;7.30;;;;;;;;;;4919190;29;20036;-70
2023/03/26 11:41:50;;;;;;;9.57;4.50;;;;;;;;;;4912613;29;20040;-73
2023/03/26 11:44:20;;;;;;;6.50;2.28;;;;;;;;;;4911902;29;20024;-73
2023/03/26 11:46:48;;;;;;;6.65;1.52;;;;;;;;;;4915845;29;20039;-74
2023/03/26 11:49:17;;;;;;;2.60;0.90;;;;;;;;;;4906625;29;20032;-74
2023/03/26 11:51:43;;;;;;;4.07;0.98;;;;;;;;;;4912095;29;20029;-73
2023/03/26 11:54:11;;;;;;;3.05;0.98;;;;;;;;;;4912288;29;20457;-74
2023/03/26 11:56:48;;;;;;;2.55;0.60;;;;;;;;;;4913682;29;20025;-73
2023/03/26 11:59:16;;;;;;;2.60;0.80;;;;;;;;;;4913483;29;20020;-79
2023/03/26 12:02:11;;;;;;;2.60;0.63;;;;;;;;;;4915697;29;20126;-80
2023/03/26 12:04:42;;;;;;;2.67;1.00;;;;;;;;;;4913919;29;20072;-80
2023/03/26 12:07:21;;;;;;;1.50;0.50;;;;;;;;;;4911084;29;20079;-77
2023/03/26 12:09:51;;;;;;;2.60;0.80;;;;;;;;;;4912889;29;20513;-79
2023/03/26 12:12:18;;;;;;;0.77;0.45;;;;;;;;;;4911174;29;20036;-77
2023/03/26 12:14:44;;;;;;;3.03;0.60;;;;;;;;;;4911323;29;20168;-75
2023/03/26 12:17:15;;;;;;;1.13;0.40;;;;;;;;;;4913640;29;20115;-76
2023/03/26 12:19:42;;;;;;;3.33;0.80;;;;;;;;;;4911371;29;20394;-75
2023/03/26 12:22:30;;;;;;;2.33;0.70;;;;;;;;;;4912640;29;20126;-76
2023/03/26 12:25:02;;;;;;;2.83;0.73;;;;;;;;;;4912498;29;20021;-76
2023/03/26 12:27:29;;;;;;;4.57;0.88;;;;;;;;;;4915048;29;20032;-75
2023/03/26 12:29:59;;;;;;;4.15;0.90;;;;;;;;;;4918124;29;20032;-75
2023/03/26 12:32:31;;;;;;;2.22;0.50;;;;;;;;;;4912660;29;20154;-76
2023/03/26 12:35:03;;;;;;;4.93;0.60;;;;;;;;;;4909795;29;20426;-75
2023/03/26 12:37:42;;;;;;;1.92;0.70;;;;;;;;;;4915145;29;20033;-76
2023/03/26 12:40:26;;;;;;;2.17;0.70;;;;;;;;;;4910863;29;20027;-77
2023/03/26 12:42:53;;;;;;;2.00;0.57;;;;;;;;;;4912411;29;20032;-77
2023/03/26 12:45:39;;;;;;;5.18;0.63;;;;;;;;;;4902514;29;20382;-75
2023/03/26 12:48:06;;;;;;;3.83;0.80;;;;;;;;;;4918340;29;20390;-75
2023/03/26 12:50:51;;;;;;;2.70;0.75;;;;;;;;;;4921308;29;20044;-75
2023/03/26 12:53:23;;;;;;;3.15;0.80;;;;;;;;;;4921186;29;20032;-76
2023/03/26 12:56:00;;;;;;;3.42;0.93;;;;;;;;;;4921200;29;20116;-77
2023/03/26 12:58:32;;;;;;;2.28;0.70;;;;;;;;;;4921098;29;20031;-77
2023/03/26 13:01:14;;;;;;;2.80;0.50;;;;;;;;;;4921173;29;20390;-76
2023/03/26 13:03:40;;;;;;;5.45;1.80;;;;;;;;;;4920480;29;20080;-77
2023/03/26 13:06:07;;;;;;;2.20;0.80;;;;;;;;;;4914176;29;20394;-75
2023/03/26 13:08:45;;;;;;;2.92;0.93;;;;;;;;;;4919136;29;20083;-76
2023/03/26 13:11:11;;;;;;;5.38;1.42;;;;;;;;;;4914152;29;20034;-76
2023/03/26 13:13:46;;;;;;;3.72;0.75;;;;;;;;;;4920268;29;20485;-76
2023/03/26 13:16:25;;;;;;;2.25;0.60;;;;;;;;;;4917617;29;20036;-74
2023/03/26 13:19:00;;;;;;;4.05;0.82;;;;;;;;;;4913706;29;20032;-75
2023/03/26 13:21:46;;;;;;;2.55;0.88;;;;;;;;;;4920150;29;20465;-76
2023/03/26 13:24:12;;;;;;;2.85;0.60;;;;;;;;;;4911847;29;20040;-76
2023/03/26 13:26:49;;;;;;;3.67;0.60;;;;;;;;;;4916599;29;20036;-77
2023/03/26 13:29:18;;;;;;;3.00;0.55;;;;;;;;;;4921858;29;20032;-77
2023/03/26 13:32:04;;;;;;;2.17;0.63;;;;;;;;;;4911404;29;20056;-78
2023/03/26 13:34:30;;;;;;;1.65;0.55;;;;;;;;;;4925200;29;20087;-78
2023/03/26 13:37:16;;;;;;;2.75;0.73;;;;;;;;;;4919863;29;20100;-78
2023/03/26 13:39:44;;;;;;;2.47;0.40;;;;;;;;;;4906845;29;20611;-76
2023/03/26 13:42:17;;;;;;;2.00;0.50;;;;;;;;;;4909437;29;20034;-72
2023/03/26 13:45:00;;;;;;;0.40;0.20;;;;;;;;;;4918100;29;20028;-73
2023/03/26 13:47:27;;;;;;;1.40;0.40;;;;;;;;;;4921700;29;20063;-78
2023/03/26 13:49:57;;;;;;;1.20;0.20;;;;;;;;;;4915044;29;20512;-77
2023/03/26 13:52:27;;;;;;;0.88;0.20;;;;;;;;;;4916500;29;20517;-77
2023/03/26 13:55:19;;;;;;;1.08;0.22;;;;;;;;;;4918589;29;20028;-75
2023/03/26 13:57:54;;;;;;;1.65;0.30;;;;;;;;;;4917526;29;20511;-76
2023/03/26 14:00:26;;;;;;;1.38;0.30;;;;;;;;;;4917271;29;20029;-78
2023/03/26 14:02:57;;;;;;;2.63;0.70;;;;;;;;;;4918661;29;20017;-76
2023/03/26 14:05:27;;;;;;;1.92;0.50;;;;;;;;;;4916188;29;20080;-76
2023/03/26 14:08:22;;;;;;;1.30;0.40;;;;;;;;;;4920412;29;20667;-74
2023/03/26 14:10:55;;;;;;;2.47;0.80;;;;;;;;;;4903485;29;20041;-75
2023/03/26 14:13:40;;;;;;;2.50;0.65;;;;;;;;;;4915127;29;20513;-75
2023/03/26 14:16:09;;;;;;;1.92;0.68;;;;;;;;;;4917559;29;20111;-75
2023/03/26 14:18:42;;;;;;;2.60;0.55;;;;;;;;;;4909430;29;20044;-75
2023/03/26 14:21:15;;;;;;;4.97;2.63;;;;;;;;;;4921496;29;20028;-81
2023/03/26 14:23:41;;;;;;;3.15;0.95;;;;;;;;;;4920407;29;20020;-75
2023/03/26 14:26:31;;;;;;;3.08;0.70;;;;;;;;;;4918828;29;20055;-77
2023/03/26 14:29:17;;;;;;;3.25;0.75;;;;;;;;;;4919733;29;20025;-77
2023/03/26 14:32:06;;;;;;;4.30;0.80;;;;;;;;;;4916501;29;20504;-77
2023/03/26 14:34:39;;;;;;;5.68;0.90;;;;;;;;;;4890600;29;20207;-76
2023/03/26 14:37:15;;;;;;;4.05;0.70;;;;;;;;;;4913350;29;20032;-79
2023/03/26 14:40:00;;;;;;;7.68;0.80;;;;;;;;;;4913672;29;20390;-77
2023/03/26 14:42:41;;;;;;;8.10;1.10;;;10.90;99.90;;;;;;4914869;29;20028;-79
2023/03/26 14:45:10;;;;;;;4.50;0.80;;;;;;;;;;4930183;29;20056;-75
2023/03/26 14:47:55;;;;;;;5.57;0.75;;;10.60;99.90;;;;;;4917555;29;20094;-83
2023/03/26 14:50:45;;;;;;;5.97;0.82;;;10.60;99.90;;;;;;4904355;29;20191;-79
2023/03/26 14:53:24;;;;;;;5.00;0.90;;;10.70;99.90;;;;;;4902116;29;20029;-79
2023/03/26 14:56:24;;;;;;;5.75;0.80;;;10.80;99.90;;;;;;4905534;29;20036;-78
2023/03/26 14:59:21;;;;;;;6.35;0.75;;;10.90;99.90;;;;;;4904403;29;20020;-79
2023/03/26 15:02:05;;;;;;;3.90;0.80;;;11.10;99.90;;;;;;4913309;29;20055;-79
2023/03/26 15:04:49;;;;;;;4.35;0.80;;;11.40;99.90;;;;;;4922612;29;20127;-78